createdAt,value
2019-03-08T00:01:40.386Z,5.80
2019-03-08T00:04:08.486Z,5.80
2019-03-08T00:06:36.267Z,5.80
2019-03-08T00:09:05.703Z,5.80
2019-03-08T00:11:33.591Z,5.80
2019-03-08T00:14:01.384Z,5.80
2019-03-08T00:16:29.183Z,5.80
2019-03-08T00:18:57.032Z,5.80
2019-03-08T00:21:24.802Z,5.90
2019-03-08T00:23:52.686Z,5.90
2019-03-08T00:26:20.512Z,5.80
2019-03-08T00:28:48.298Z,5.80
2019-03-08T00:31:16.165Z,5.90
2019-03-08T00:33:43.953Z,5.90
2019-03-08T00:36:11.854Z,5.90
2019-03-08T00:38:39.723Z,5.90
2019-03-08T00:41:07.519Z,5.90
2019-03-08T00:43:35.367Z,5.90
2019-03-08T00:46:03.328Z,5.90
2019-03-08T00:48:31.107Z,6.00
2019-03-08T00:50:59.215Z,6.00
2019-03-08T00:53:27.068Z,6.00
2019-03-08T00:55:54.883Z,6.00
2019-03-08T00:58:22.649Z,6.00
2019-03-08T01:00:50.893Z,6.00
2019-03-08T01:03:18.772Z,6.00
2019-03-08T01:05:46.901Z,5.90
2019-03-08T01:08:14.826Z,5.90
2019-03-08T01:10:42.684Z,5.90
2019-03-08T01:13:10.458Z,5.90
2019-03-08T01:15:38.312Z,5.90
2019-03-08T01:18:06.177Z,5.90
2019-03-08T01:20:34.347Z,5.90
2019-03-08T01:23:02.402Z,5.90
2019-03-08T01:25:30.179Z,5.90
2019-03-08T01:28:02.702Z,5.90
2019-03-08T01:30:30.668Z,5.90
2019-03-08T01:32:59.357Z,5.90
2019-03-08T01:35:27.255Z,5.90
2019-03-08T01:37:55.145Z,5.80
2019-03-08T01:40:23.055Z,5.80
2019-03-08T01:42:51.018Z,5.80
2019-03-08T01:45:18.905Z,5.90
2019-03-08T01:47:46.687Z,5.80
2019-03-08T01:50:14.612Z,5.80
2019-03-08T01:52:42.897Z,5.80
2019-03-08T01:55:10.873Z,5.80
2019-03-08T01:57:38.678Z,5.80
2019-03-08T02:00:08.557Z,5.80
2019-03-08T02:02:36.398Z,5.80
2019-03-08T02:05:04.724Z,5.70
2019-03-08T02:07:33.295Z,5.70
2019-03-08T02:10:01.210Z,5.70
2019-03-08T02:12:29.033Z,5.60
2019-03-08T02:14:56.815Z,5.60
2019-03-08T02:17:24.590Z,5.60
2019-03-08T02:19:52.467Z,5.60
2019-03-08T02:22:20.248Z,5.50
2019-03-08T02:24:48.076Z,5.50
2019-03-08T02:27:15.915Z,5.40
2019-03-08T02:29:43.706Z,5.40
2019-03-08T02:32:11.582Z,5.30
2019-03-08T02:34:39.411Z,5.20
2019-03-08T02:37:07.213Z,5.20
2019-03-08T02:39:35.315Z,5.20
2019-03-08T02:42:03.168Z,5.10
2019-03-08T02:44:30.968Z,5.10
2019-03-08T02:46:58.787Z,5.00
2019-03-08T02:49:26.610Z,5.00
2019-03-08T02:51:54.510Z,5.00
2019-03-08T02:54:22.594Z,4.90
2019-03-08T02:56:50.399Z,4.90
2019-03-08T02:59:18.275Z,4.80
2019-03-08T03:01:46.080Z,4.80
2019-03-08T03:04:13.888Z,4.80
2019-03-08T03:06:41.735Z,4.70
2019-03-08T03:09:09.669Z,4.70
2019-03-08T03:11:37.489Z,4.70
2019-03-08T03:14:05.330Z,4.70
2019-03-08T03:16:33.167Z,4.60
2019-03-08T03:19:00.969Z,4.60
2019-03-08T03:21:28.802Z,4.60
2019-03-08T03:23:56.606Z,4.60
2019-03-08T03:26:24.438Z,4.50
2019-03-08T03:28:52.232Z,4.50
2019-03-08T03:31:20.037Z,4.50
2019-03-08T03:33:47.880Z,4.50
2019-03-08T03:36:15.669Z,4.40
2019-03-08T03:38:43.540Z,4.40
2019-03-08T03:41:11.664Z,4.40
2019-03-08T03:43:39.484Z,4.40
2019-03-08T03:46:07.303Z,4.40
2019-03-08T03:48:35.095Z,4.40
2019-03-08T03:51:02.987Z,4.40
2019-03-08T03:53:30.870Z,4.50
2019-03-08T03:55:59.086Z,4.50
2019-03-08T03:58:26.868Z,4.50
2019-03-08T04:00:55.021Z,4.60
2019-03-08T04:03:22.799Z,4.60
2019-03-08T04:05:50.633Z,4.60
2019-03-08T04:08:18.825Z,4.60
2019-03-08T04:10:46.672Z,4.70
2019-03-08T04:13:14.622Z,4.70
2019-03-08T04:15:42.501Z,4.70
2019-03-08T04:18:10.290Z,4.70
2019-03-08T04:20:38.572Z,4.80
2019-03-08T04:23:06.418Z,4.90
2019-03-08T04:25:34.801Z,4.90
2019-03-08T04:28:03.283Z,4.90
2019-03-08T04:30:31.064Z,4.80
2019-03-08T04:32:59.372Z,4.80
2019-03-08T04:35:27.696Z,4.90
2019-03-08T04:37:56.024Z,4.90
2019-03-08T04:40:23.829Z,4.80
2019-03-08T04:42:52.105Z,4.90
2019-03-08T04:45:20.542Z,4.90
2019-03-08T04:47:48.815Z,4.90
2019-03-08T04:50:17.293Z,4.90
2019-03-08T04:52:45.199Z,4.90
2019-03-08T04:55:13.592Z,4.90
2019-03-08T04:57:41.548Z,4.80
2019-03-08T05:00:10.887Z,4.90
2019-03-08T05:02:39.076Z,4.80
2019-03-08T05:05:07.343Z,4.80
2019-03-08T05:07:35.465Z,4.80
2019-03-08T05:10:03.868Z,4.80
2019-03-08T05:12:31.748Z,4.80
2019-03-08T05:14:59.853Z,4.80
2019-03-08T05:17:27.727Z,4.70
2019-03-08T05:19:55.522Z,4.80
2019-03-08T05:22:23.326Z,4.80
2019-03-08T05:24:51.156Z,5.00
2019-03-08T05:27:18.956Z,4.80
2019-03-08T05:29:46.949Z,4.80
2019-03-08T05:32:14.781Z,4.80
2019-03-08T05:34:42.578Z,4.80
2019-03-08T05:37:10.370Z,4.80
2019-03-08T05:39:38.167Z,4.80
2019-03-08T05:42:06.243Z,4.90
2019-03-08T05:44:34.722Z,4.80
2019-03-08T05:47:02.829Z,4.90
2019-03-08T05:49:31.136Z,4.90
2019-03-08T05:51:59.792Z,4.80
2019-03-08T05:54:27.569Z,4.90
2019-03-08T05:56:55.374Z,4.90
2019-03-08T05:59:23.207Z,4.90
2019-03-08T06:01:51.405Z,4.90
2019-03-08T06:04:19.185Z,4.90
2019-03-08T06:06:47.017Z,4.90
2019-03-08T06:09:14.799Z,4.90
2019-03-08T06:11:42.603Z,4.90
2019-03-08T06:14:10.489Z,4.90
2019-03-08T06:16:38.270Z,4.90
2019-03-08T06:19:06.280Z,5.00
2019-03-08T06:21:34.110Z,5.00
2019-03-08T06:24:01.948Z,5.00
2019-03-08T06:26:29.754Z,5.00
2019-03-08T06:28:57.595Z,5.00
2019-03-08T06:31:25.374Z,5.00
2019-03-08T06:33:53.223Z,5.00
2019-03-08T06:36:21.026Z,5.10
2019-03-08T06:38:48.901Z,5.10
2019-03-08T06:41:16.703Z,5.10
2019-03-08T06:43:44.519Z,5.20
2019-03-08T06:46:12.411Z,5.30
2019-03-08T06:48:40.196Z,5.30
2019-03-08T06:51:08.096Z,5.30
2019-03-08T06:53:35.994Z,5.40
2019-03-08T06:56:03.816Z,5.50
2019-03-08T06:58:54.115Z,5.60
2019-03-08T07:01:25.331Z,5.70
2019-03-08T07:03:53.108Z,5.90
2019-03-08T07:06:20.992Z,5.90
2019-03-08T07:08:48.771Z,5.90
2019-03-08T07:11:16.572Z,6.00
2019-03-08T07:13:44.398Z,6.00
2019-03-08T07:16:14.200Z,6.10
2019-03-08T07:18:41.917Z,6.10
2019-03-08T07:21:35.003Z,6.10
2019-03-08T07:24:22.257Z,6.20
2019-03-08T07:27:09.180Z,6.30
2019-03-08T07:29:53.459Z,6.30
2019-03-08T07:32:43.767Z,6.40
2019-03-08T07:35:30.979Z,6.30
2019-03-08T07:38:30.448Z,6.30
2019-03-08T07:41:29.846Z,6.30
2019-03-08T07:44:18.474Z,6.30
2019-03-08T07:47:04.894Z,6.30
2019-03-08T07:49:55.128Z,6.30
2019-03-08T07:52:42.441Z,6.30
2019-03-08T07:55:28.206Z,6.30
2019-03-08T07:58:15.470Z,6.30
2019-03-08T08:00:56.917Z,6.40
2019-03-08T08:03:32.471Z,6.40
2019-03-08T08:06:12.336Z,6.50
2019-03-08T08:09:18.075Z,6.50
2019-03-08T08:12:11.187Z,6.60
2019-03-08T08:14:53.426Z,6.80
2019-03-08T08:17:29.464Z,6.90
2019-03-08T08:20:16.569Z,6.90
2019-03-08T08:22:53.563Z,7.10
2019-03-08T08:25:38.705Z,7.10
2019-03-08T08:28:21.278Z,7.20
2019-03-08T08:31:07.152Z,7.30
2019-03-08T08:33:44.517Z,7.40
2019-03-08T08:36:31.216Z,7.50
2019-03-08T08:39:21.312Z,7.50
2019-03-08T08:42:08.621Z,7.50
2019-03-08T08:44:54.530Z,7.40
2019-03-08T08:47:41.778Z,7.50
2019-03-08T08:50:36.091Z,7.60
2019-03-08T08:53:29.128Z,7.60
2019-03-08T08:56:19.419Z,7.60
2019-03-08T08:59:02.741Z,7.70
2019-03-08T09:01:40.028Z,7.70
2019-03-08T09:04:17.251Z,7.70
2019-03-08T09:07:07.088Z,7.60
2019-03-08T09:09:52.678Z,7.70
2019-03-08T09:12:42.752Z,7.70
2019-03-08T09:15:16.111Z,7.60
2019-03-08T09:18:09.229Z,7.60
2019-03-08T09:20:53.092Z,7.60
2019-03-08T09:23:53.914Z,7.60
2019-03-08T09:26:37.013Z,7.60
2019-03-08T09:29:22.596Z,7.70
2019-03-08T09:31:58.836Z,7.70
2019-03-08T09:34:44.639Z,7.80
2019-03-08T09:37:28.970Z,8.00
2019-03-08T09:40:16.209Z,8.20
2019-03-08T09:43:03.493Z,8.20
2019-03-08T09:45:49.725Z,8.30
2019-03-08T09:48:35.664Z,8.30
2019-03-08T09:51:14.398Z,8.30
2019-03-08T09:53:47.221Z,8.30
2019-03-08T09:56:25.880Z,8.30
2019-03-08T09:59:23.303Z,8.20
2019-03-08T10:02:08.951Z,8.20
2019-03-08T10:04:44.175Z,8.10
2019-03-08T10:07:22.763Z,8.10
2019-03-08T10:10:07.199Z,8.10
2019-03-08T10:13:00.390Z,8.10
2019-03-08T10:15:51.072Z,8.10
2019-03-08T10:18:44.209Z,8.10
2019-03-08T10:21:27.920Z,8.20
2019-03-08T10:24:15.147Z,8.30
2019-03-08T10:27:10.559Z,8.40
2019-03-08T10:29:57.770Z,8.40
2019-03-08T10:32:37.609Z,8.40
2019-03-08T10:35:35.155Z,8.50
2019-03-08T10:38:22.578Z,8.60
2019-03-08T10:41:08.705Z,8.60
2019-03-08T10:44:08.770Z,8.60
2019-03-08T10:46:47.066Z,8.80
2019-03-08T10:49:30.165Z,8.80
2019-03-08T10:52:06.129Z,8.80
2019-03-08T10:55:02.063Z,9.00
2019-03-08T10:58:01.217Z,9.00
2019-03-08T11:01:00.610Z,9.10
2019-03-08T11:03:57.272Z,9.20
2019-03-08T11:06:37.885Z,9.20
2019-03-08T11:09:20.587Z,9.10
2019-03-08T11:12:06.038Z,9.10
2019-03-08T11:14:53.283Z,9.00
2019-03-08T11:17:52.614Z,9.00
2019-03-08T11:20:46.913Z,8.90
2019-03-08T11:23:32.824Z,8.90
2019-03-08T11:26:20.128Z,8.90
2019-03-08T11:28:57.222Z,9.00
2019-03-08T11:31:31.931Z,9.00
2019-03-08T11:34:10.546Z,9.00
2019-03-08T11:37:00.732Z,9.00
2019-03-08T11:39:47.957Z,9.00
2019-03-08T11:42:44.451Z,8.90
2019-03-08T11:45:38.097Z,8.90
2019-03-08T11:48:27.525Z,8.80
2019-03-08T11:51:29.741Z,8.70
2019-03-08T11:54:03.333Z,8.70
2019-03-08T11:56:56.261Z,8.60
2019-03-08T11:59:45.294Z,8.50
2019-03-08T12:02:38.330Z,8.50
2019-03-08T12:05:31.994Z,8.30
2019-03-08T12:08:25.093Z,8.20
2019-03-08T12:11:45.853Z,8.10
2019-03-08T12:14:31.734Z,8.10
2019-03-08T12:17:17.864Z,8.00
2019-03-08T12:20:00.010Z,7.80
2019-03-08T12:22:55.949Z,7.60
2019-03-08T12:25:48.818Z,7.30
2019-03-08T12:28:42.124Z,7.10
2019-03-08T12:31:38.170Z,7.00
2019-03-08T12:34:33.775Z,7.10
2019-03-08T12:37:32.964Z,7.10
2019-03-08T12:40:09.910Z,7.10
2019-03-08T12:43:07.594Z,7.00
2019-03-08T12:45:35.985Z,6.90
2019-03-08T12:48:38.448Z,6.80
2019-03-08T12:51:24.124Z,6.80
2019-03-08T12:54:13.906Z,6.70
2019-03-08T12:56:59.372Z,6.60
2019-03-08T12:59:35.567Z,6.70
2019-03-08T13:02:10.885Z,6.50
2019-03-08T13:04:50.769Z,6.40
2019-03-08T13:07:28.672Z,6.20
2019-03-08T13:10:08.055Z,6.00
2019-03-08T13:12:35.875Z,5.90
2019-03-08T13:15:04.987Z,5.60
2019-03-08T13:17:32.815Z,5.50
2019-03-08T13:20:00.619Z,5.40
2019-03-08T13:22:28.438Z,5.30
2019-03-08T13:24:56.314Z,5.40
2019-03-08T13:27:24.077Z,5.40
2019-03-08T13:29:52.178Z,5.30
2019-03-08T13:32:20.065Z,5.20
2019-03-08T13:34:48.746Z,5.10
2019-03-08T13:37:16.577Z,5.00
2019-03-08T13:39:44.439Z,5.00
2019-03-08T13:42:12.219Z,4.90
2019-03-08T13:44:40.017Z,4.90
2019-03-08T13:47:07.877Z,5.00
2019-03-08T13:49:35.663Z,5.00
2019-03-08T13:52:03.434Z,5.00
2019-03-08T13:54:31.306Z,5.00
2019-03-08T13:56:59.192Z,4.80
2019-03-08T13:59:27.005Z,4.60
2019-03-08T14:01:55.159Z,4.60
2019-03-08T14:04:22.994Z,4.50
2019-03-08T14:06:50.943Z,4.40
2019-03-08T14:09:18.767Z,4.10
2019-03-08T14:11:46.543Z,3.80
2019-03-08T14:14:14.378Z,3.50
2019-03-08T14:16:42.474Z,3.20
2019-03-08T14:19:10.280Z,3.00
2019-03-08T14:21:38.103Z,2.80
2019-03-08T14:24:05.920Z,2.60
2019-03-08T14:26:33.713Z,2.50
2019-03-08T14:29:01.589Z,2.50
2019-03-08T14:31:37.569Z,2.50
2019-03-08T14:34:05.435Z,2.30
2019-03-08T14:36:33.226Z,2.10
2019-03-08T14:39:04.267Z,2.10
2019-03-08T14:41:52.727Z,2.00
2019-03-08T14:44:39.960Z,1.80
2019-03-08T14:49:43.756Z,1.50
2019-03-08T14:52:11.563Z,1.30
2019-03-08T14:54:42.252Z,1.10
2019-03-08T14:57:09.234Z,1.00
2019-03-08T14:59:38.639Z,0.90
2019-03-08T15:02:06.511Z,0.90
2019-03-08T15:04:34.663Z,0.90
2019-03-08T15:07:04.625Z,0.90
2019-03-08T15:09:32.142Z,0.80
2019-03-08T15:12:00.673Z,0.70
2019-03-08T15:14:30.337Z,0.60
2019-03-08T15:16:58.325Z,0.60
2019-03-08T15:19:26.136Z,0.60
2019-03-08T15:21:53.941Z,0.70
2019-03-08T15:24:21.744Z,0.60
2019-03-08T15:26:49.594Z,0.50
2019-03-08T15:29:17.472Z,0.40
2019-03-08T15:31:45.252Z,0.40
2019-03-08T15:34:14.618Z,0.30
2019-03-08T15:36:42.668Z,0.40
2019-03-08T15:39:10.447Z,0.40
2019-03-08T15:41:38.291Z,0.50
2019-03-08T15:44:06.306Z,0.40
2019-03-08T15:46:34.305Z,0.40
2019-03-08T15:49:02.204Z,0.40
2019-03-08T15:51:30.192Z,0.40
2019-03-08T15:53:58.095Z,0.50
2019-03-08T15:56:26.040Z,0.50
2019-03-08T15:58:53.891Z,0.40
2019-03-08T16:01:22.076Z,0.50
2019-03-08T16:03:49.915Z,0.50
2019-03-08T16:06:19.562Z,0.50
2019-03-08T16:08:47.715Z,0.60
2019-03-08T16:11:15.543Z,0.50
2019-03-08T16:13:43.470Z,0.50
2019-03-08T16:16:11.537Z,0.50
2019-03-08T16:18:40.010Z,0.50
2019-03-08T16:21:13.076Z,0.60
2019-03-08T16:23:38.891Z,0.50
2019-03-08T16:26:06.727Z,0.50
2019-03-08T16:28:34.850Z,0.50
2019-03-08T16:31:21.703Z,0.50
2019-03-08T16:33:52.728Z,0.40
2019-03-08T16:36:40.860Z,0.50
2019-03-08T16:39:40.498Z,0.50
2019-03-08T16:42:33.557Z,0.50
2019-03-08T16:45:15.203Z,0.50
2019-03-08T16:48:00.874Z,0.50
2019-03-08T16:50:42.582Z,0.50
2019-03-08T16:53:25.961Z,0.50
2019-03-08T16:55:58.967Z,0.50
2019-03-08T16:58:50.714Z,0.50
2019-03-08T17:01:37.968Z,0.50
2019-03-08T17:04:19.995Z,0.40
2019-03-08T17:07:19.558Z,0.50
2019-03-08T17:10:12.756Z,0.40
2019-03-08T17:13:02.828Z,0.50
2019-03-08T17:15:47.446Z,0.40
2019-03-08T17:18:30.249Z,0.40
2019-03-08T17:21:35.785Z,0.50
2019-03-08T17:24:23.210Z,0.40
2019-03-08T17:27:10.487Z,0.40
2019-03-08T17:29:49.485Z,0.40
2019-03-08T17:32:35.913Z,0.40
2019-03-08T17:35:26.514Z,0.40
2019-03-08T17:38:04.047Z,0.40
2019-03-08T17:40:42.687Z,0.30
2019-03-08T17:43:30.022Z,0.40
2019-03-08T17:46:16.623Z,0.40
2019-03-08T17:49:01.543Z,0.40
2019-03-08T17:51:51.380Z,0.40
2019-03-08T17:54:53.765Z,0.30
2019-03-08T17:57:34.732Z,0.30
2019-03-08T18:00:40.234Z,0.30
2019-03-08T18:03:17.476Z,0.40
2019-03-08T18:06:07.530Z,0.30
2019-03-08T18:08:54.820Z,0.40
2019-03-08T18:11:57.338Z,0.40
2019-03-08T18:14:47.387Z,0.40
2019-03-08T18:17:40.599Z,0.50
2019-03-08T18:20:28.000Z,0.50
2019-03-08T18:23:24.415Z,0.50
2019-03-08T18:26:14.631Z,0.50
2019-03-08T18:28:53.746Z,0.50
2019-03-08T18:31:52.929Z,0.50
2019-03-08T18:34:46.158Z,0.50
2019-03-08T18:37:20.612Z,0.50
2019-03-08T18:40:04.798Z,0.50
2019-03-08T18:43:03.969Z,0.60
2019-03-08T18:45:50.080Z,0.70
2019-03-08T18:48:26.962Z,0.70
2019-03-08T18:51:14.282Z,0.80
2019-03-08T18:54:16.401Z,0.80
2019-03-08T18:57:18.678Z,0.90
2019-03-08T19:00:04.601Z,0.90
2019-03-08T19:03:00.804Z,0.90
2019-03-08T19:05:44.147Z,1.00
2019-03-08T19:08:20.833Z,1.00
2019-03-08T19:11:23.285Z,1.10
2019-03-08T19:14:09.542Z,1.10
2019-03-08T19:16:59.590Z,1.10
2019-03-08T19:19:52.477Z,1.10
2019-03-08T19:22:39.714Z,1.10
2019-03-08T19:25:33.511Z,1.10
2019-03-08T19:28:26.474Z,1.20
2019-03-08T19:31:16.525Z,1.20
2019-03-08T19:34:06.742Z,1.20
2019-03-08T19:36:59.754Z,1.20
2019-03-08T19:39:49.907Z,1.20
2019-03-08T19:42:30.160Z,1.20
2019-03-08T19:45:08.424Z,1.30
2019-03-08T19:47:59.153Z,1.30
2019-03-08T19:50:52.011Z,1.30
2019-03-08T19:53:42.099Z,1.30
2019-03-08T19:56:29.314Z,1.20
2019-03-08T19:59:12.083Z,1.10
2019-03-08T20:01:59.316Z,1.10
2019-03-08T20:04:46.575Z,1.10
2019-03-08T20:07:39.647Z,1.00
2019-03-08T20:10:42.518Z,1.00
2019-03-08T20:13:27.805Z,0.90
2019-03-08T20:16:11.410Z,0.90
2019-03-08T20:19:07.501Z,0.80
2019-03-08T20:22:09.989Z,0.80
2019-03-08T20:25:03.039Z,0.80
2019-03-08T20:28:05.235Z,0.80
2019-03-08T20:30:58.361Z,0.80
2019-03-08T20:33:32.463Z,0.80
2019-03-08T20:36:18.204Z,0.80
2019-03-08T20:39:15.924Z,0.80
2019-03-08T20:42:03.228Z,0.70
2019-03-08T20:44:35.382Z,0.70
2019-03-08T20:47:09.452Z,0.70
2019-03-08T20:49:37.295Z,0.70
2019-03-08T20:52:05.243Z,0.60
2019-03-08T20:54:33.441Z,0.60
2019-03-08T20:57:01.236Z,0.60
2019-03-08T20:59:29.107Z,0.60
2019-03-08T21:01:57.129Z,0.60
2019-03-08T21:04:25.020Z,0.60
2019-03-08T21:06:52.886Z,0.60
2019-03-08T21:09:21.146Z,0.60
2019-03-08T21:11:49.320Z,0.60
2019-03-08T21:14:17.354Z,0.50
2019-03-08T21:16:45.409Z,0.40
2019-03-08T21:19:13.342Z,0.50
2019-03-08T21:21:41.225Z,0.40
2019-03-08T21:24:09.577Z,0.40
2019-03-08T21:26:37.445Z,0.40
2019-03-08T21:29:05.554Z,0.40
2019-03-08T21:31:33.617Z,0.40
2019-03-08T21:34:01.779Z,0.40
2019-03-08T21:36:29.622Z,0.40
2019-03-08T21:38:57.485Z,0.40
2019-03-08T21:41:25.584Z,0.40
2019-03-08T21:43:54.021Z,0.40
2019-03-08T21:46:22.183Z,0.40
2019-03-08T21:48:50.195Z,0.40
2019-03-08T21:51:19.917Z,0.40
2019-03-08T21:53:47.782Z,0.40
2019-03-08T21:56:15.762Z,0.40
2019-03-08T21:58:43.621Z,0.30
2019-03-08T22:01:11.585Z,0.30
2019-03-08T22:03:39.595Z,0.30
2019-03-08T22:06:07.709Z,0.30
2019-03-08T22:08:37.378Z,0.30
2019-03-08T22:11:15.884Z,0.30
2019-03-08T22:13:43.902Z,0.30
2019-03-08T22:16:11.816Z,0.30
2019-03-08T22:18:39.854Z,0.30
2019-03-08T22:21:08.023Z,0.30
2019-03-08T22:23:35.888Z,0.30
2019-03-08T22:26:03.860Z,0.30
2019-03-08T22:28:31.685Z,0.30
2019-03-08T22:30:59.652Z,0.30
2019-03-08T22:33:27.707Z,0.30
2019-03-08T22:35:55.654Z,0.30
2019-03-08T22:38:23.728Z,0.30
2019-03-08T22:40:51.651Z,0.30
2019-03-08T22:43:19.518Z,0.30
2019-03-08T22:45:47.773Z,0.30
2019-03-08T22:48:15.641Z,0.30
2019-03-08T22:50:43.539Z,0.30
2019-03-08T22:53:11.433Z,0.30
2019-03-08T22:55:39.278Z,0.20
2019-03-08T22:58:07.235Z,0.20
2019-03-08T23:01:12.470Z,0.20
2019-03-08T23:03:40.580Z,0.20
2019-03-08T23:06:08.787Z,0.20
2019-03-08T23:08:36.923Z,0.20
2019-03-08T23:11:04.941Z,0.10
2019-03-08T23:13:32.905Z,0.10
2019-03-08T23:16:00.938Z,0.10
2019-03-08T23:18:28.905Z,0.10
2019-03-08T23:20:57.058Z,0.10
2019-03-08T23:23:25.042Z,0.10
2019-03-08T23:25:53.116Z,0.10
2019-03-08T23:28:38.605Z,0.10
2019-03-08T23:31:29.177Z,0.10
2019-03-08T23:33:57.202Z,0.10
2019-03-08T23:36:25.141Z,0.10
2019-03-08T23:38:53.136Z,0.10
2019-03-08T23:41:21.504Z,0.10
2019-03-08T23:43:49.458Z,0.10
2019-03-08T23:46:17.306Z,0.10
2019-03-08T23:48:45.371Z,0.10
2019-03-08T23:51:13.259Z,0.10
2019-03-08T23:53:41.228Z,0.10
2019-03-08T23:56:09.168Z,0.20
2019-03-08T23:58:37.075Z,0.20
